sensor_id;sensor_type;location;lat;lon;timestamp;pressure;altitude;pressure_sealevel;temperature;humidity
39891;BME280;25564;53.312;9.790;2022-10-16T00:00:45;100265.00;;;13.59;92.61
39891;BME280;25564;53.312;9.790;2022-10-16T00:03:16;100266.97;;;13.54;92.35
39891;BME280;25564;53.312;9.790;2022-10-16T00:05:48;100268.00;;;13.52;92.54
39891;BME280;25564;53.312;9.790;2022-10-16T00:08:19;100248.22;;;13.34;91.85
39891;BME280;25564;53.312;9.790;2022-10-16T00:10:50;100271.00;;;13.43;92.28
39891;BME280;25564;53.312;9.790;2022-10-16T00:13:22;100277.31;;;13.40;92.23
39891;BME280;25564;53.312;9.790;2022-10-16T00:15:56;100274.88;;;13.34;91.86
39891;BME280;25564;53.312;9.790;2022-10-16T00:18:28;100270.56;;;13.30;92.12
39891;BME280;25564;53.312;9.790;2022-10-16T00:21:05;100271.81;;;13.20;91.96
39891;BME280;25564;53.312;9.790;2022-10-16T00:23:37;100276.28;;;13.19;92.06
39891;BME280;25564;53.312;9.790;2022-10-16T00:26:14;100271.94;;;13.15;92.09
39891;BME280;25564;53.312;9.790;2022-10-16T00:28:47;100279.19;;;13.12;92.24
39891;BME280;25564;53.312;9.790;2022-10-16T00:31:21;100278.25;;;13.13;92.12
39891;BME280;25564;53.312;9.790;2022-10-16T00:33:53;100285.44;;;13.10;92.40
39891;BME280;25564;53.312;9.790;2022-10-16T00:36:25;100281.13;;;13.06;92.28
39891;BME280;25564;53.312;9.790;2022-10-16T00:38:57;100291.78;;;13.06;92.46
39891;BME280;25564;53.312;9.790;2022-10-16T00:41:32;100289.19;;;13.05;92.43
39891;BME280;25564;53.312;9.790;2022-10-16T00:47:34;100290.25;;;12.99;92.41
39891;BME280;25564;53.312;9.790;2022-10-16T00:50:13;100295.69;;;12.96;92.35
39891;BME280;25564;53.312;9.790;2022-10-16T00:52:48;100277.34;;;12.87;92.40
39891;BME280;25564;53.312;9.790;2022-10-16T00:55:21;100299.28;;;12.95;92.54
39891;BME280;25564;53.312;9.790;2022-10-16T00:57:52;100293.06;;;12.95;92.20
39891;BME280;25564;53.312;9.790;2022-10-16T01:00:25;100283.34;;;12.94;92.40
39891;BME280;25564;53.312;9.790;2022-10-16T01:02:59;100290.47;;;12.93;92.19
39891;BME280;25564;53.312;9.790;2022-10-16T01:05:44;100297.59;;;12.93;92.48
39891;BME280;25564;53.312;9.790;2022-10-16T01:08:23;100296.91;;;12.86;92.48
39891;BME280;25564;53.312;9.790;2022-10-16T01:11:07;100297.63;;;12.91;92.30
39891;BME280;25564;53.312;9.790;2022-10-16T01:13:46;100301.22;;;12.90;92.31
39891;BME280;25564;53.312;9.790;2022-10-16T01:16:30;100300.34;;;12.90;92.30
39891;BME280;25564;53.312;9.790;2022-10-16T01:19:14;100301.31;;;12.87;92.33
39891;BME280;25564;53.312;9.790;2022-10-16T01:21:49;100306.69;;;12.86;92.30
39891;BME280;25564;53.312;9.790;2022-10-16T01:24:38;100305.88;;;12.84;92.47
39891;BME280;25564;53.312;9.790;2022-10-16T01:27:26;100319.25;;;12.82;92.10
39891;BME280;25564;53.312;9.790;2022-10-16T01:30:13;100285.97;;;12.69;92.07
39891;BME280;25564;53.312;9.790;2022-10-16T01:33:13;100314.06;;;12.77;92.00
39891;BME280;25564;53.312;9.790;2022-10-16T01:35:52;100316.88;;;12.73;92.09
39891;BME280;25564;53.312;9.790;2022-10-16T01:38:33;100313.50;;;12.68;91.82
39891;BME280;25564;53.312;9.790;2022-10-16T01:41:18;100318.06;;;12.64;91.81
39891;BME280;25564;53.312;9.790;2022-10-16T01:44:02;100307.56;;;12.60;91.70
39891;BME280;25564;53.312;9.790;2022-10-16T01:46:37;100315.63;;;12.57;91.82
39891;BME280;25564;53.312;9.790;2022-10-16T01:49:11;100319.31;;;12.53;91.81
39891;BME280;25564;53.312;9.790;2022-10-16T01:51:45;100310.78;;;12.43;91.86
39891;BME280;25564;53.312;9.790;2022-10-16T01:54:19;100326.59;;;12.48;92.15
39891;BME280;25564;53.312;9.790;2022-10-16T01:57:29;100313.59;;;12.38;91.76
39891;BME280;25564;53.312;9.790;2022-10-16T02:00:10;100320.66;;;12.39;91.74
39891;BME280;25564;53.312;9.790;2022-10-16T02:02:47;100325.97;;;12.39;91.85
39891;BME280;25564;53.312;9.790;2022-10-16T02:05:25;100324.25;;;12.38;91.59
39891;BME280;25564;53.312;9.790;2022-10-16T02:07:58;100332.38;;;12.34;91.73
39891;BME280;25564;53.312;9.790;2022-10-16T02:10:35;100332.47;;;12.31;91.59
39891;BME280;25564;53.312;9.790;2022-10-16T02:13:14;100322.00;;;12.25;91.76
39891;BME280;25564;53.312;9.790;2022-10-16T02:15:48;100325.72;;;12.19;91.54
39891;BME280;25564;53.312;9.790;2022-10-16T02:18:19;100332.78;;;12.20;91.41
39891;BME280;25564;53.312;9.790;2022-10-16T02:20:55;100328.47;;;12.16;91.40
39891;BME280;25564;53.312;9.790;2022-10-16T02:23:49;100333.88;;;12.13;91.38
39891;BME280;25564;53.312;9.790;2022-10-16T02:26:35;100313.81;;;12.03;91.48
39891;BME280;25564;53.312;9.790;2022-10-16T02:29:12;100313.88;;;12.00;91.71
39891;BME280;25564;53.312;9.790;2022-10-16T02:31:48;100319.06;;;12.04;91.49
39891;BME280;25564;53.312;9.790;2022-10-16T02:34:24;100323.53;;;12.04;91.83
39891;BME280;25564;53.312;9.790;2022-10-16T02:36:57;100313.88;;;12.00;91.80
39891;BME280;25564;53.312;9.790;2022-10-16T02:39:29;100323.63;;;12.01;91.66
39891;BME280;25564;53.312;9.790;2022-10-16T02:42:01;100313.06;;;11.98;91.57
39891;BME280;25564;53.312;9.790;2022-10-16T02:44:32;100322.91;;;11.94;91.46
39891;BME280;25564;53.312;9.790;2022-10-16T02:47:04;100328.38;;;11.90;91.37
39891;BME280;25564;53.312;9.790;2022-10-16T02:49:35;100332.88;;;11.88;91.47
39891;BME280;25564;53.312;9.790;2022-10-16T02:52:06;100334.69;;;11.86;91.56
39891;BME280;25564;53.312;9.790;2022-10-16T02:54:38;100327.81;;;11.78;91.42
39891;BME280;25564;53.312;9.790;2022-10-16T02:57:09;100338.34;;;11.82;91.49
39891;BME280;25564;53.312;9.790;2022-10-16T02:59:40;100342.84;;;11.79;91.65
39891;BME280;25564;53.312;9.790;2022-10-16T03:02:12;100332.31;;;11.75;91.76
39891;BME280;25564;53.312;9.790;2022-10-16T03:04:43;100325.19;;;11.75;91.87
39891;BME280;25564;53.312;9.790;2022-10-16T03:07:15;100328.78;;;11.74;91.67
39891;BME280;25564;53.312;9.790;2022-10-16T03:09:46;100322.63;;;11.72;91.65
39891;BME280;25564;53.312;9.790;2022-10-16T03:12:17;100334.19;;;11.71;91.73
39891;BME280;25564;53.312;9.790;2022-10-16T03:14:48;100328.13;;;11.66;91.59
39891;BME280;25564;53.312;9.790;2022-10-16T03:17:20;100312.25;;;11.63;91.77
39891;BME280;25564;53.312;9.790;2022-10-16T03:19:51;100322.94;;;11.62;91.61
39891;BME280;25564;53.312;9.790;2022-10-16T03:22:22;100325.69;;;11.59;91.64
39891;BME280;25564;53.312;9.790;2022-10-16T03:24:54;100325.72;;;11.57;91.71
39891;BME280;25564;53.312;9.790;2022-10-16T03:27:25;100323.09;;;11.56;91.63
39891;BME280;25564;53.312;9.790;2022-10-16T03:29:57;100323.16;;;11.54;91.76
39891;BME280;25564;53.312;9.790;2022-10-16T03:32:28;100325.81;;;11.54;91.83
39891;BME280;25564;53.312;9.790;2022-10-16T03:35:00;100327.72;;;11.49;91.96
39891;BME280;25564;53.312;9.790;2022-10-16T03:37:31;100328.47;;;11.54;92.16
39891;BME280;25564;53.312;9.790;2022-10-16T03:40:03;100331.88;;;11.59;92.08
39891;BME280;25564;53.312;9.790;2022-10-16T03:42:35;100331.03;;;11.57;92.38
39891;BME280;25564;53.312;9.790;2022-10-16T03:45:07;100315.31;;;11.50;92.34
39891;BME280;25564;53.312;9.790;2022-10-16T03:47:38;100316.97;;;11.54;92.31
39891;BME280;25564;53.312;9.790;2022-10-16T03:50:09;100332.81;;;11.57;92.38
39891;BME280;25564;53.312;9.790;2022-10-16T03:52:41;100334.47;;;11.61;92.45
39891;BME280;25564;53.312;9.790;2022-10-16T03:55:12;100328.34;;;11.59;92.54
39891;BME280;25564;53.312;9.790;2022-10-16T03:57:43;100322.22;;;11.55;92.33
39891;BME280;25564;53.312;9.790;2022-10-16T04:00:14;100343.94;;;11.71;92.54
39891;BME280;25564;53.312;9.790;2022-10-16T04:02:46;100347.47;;;11.71;92.50
39891;BME280;25564;53.312;9.790;2022-10-16T04:05:22;100343.03;;;11.72;92.72
39891;BME280;25564;53.312;9.790;2022-10-16T04:07:53;100352.97;;;11.65;92.69
39891;BME280;25564;53.312;9.790;2022-10-16T04:10:26;100351.16;;;11.66;92.63
39891;BME280;25564;53.312;9.790;2022-10-16T04:12:57;100344.13;;;11.65;92.56
39891;BME280;25564;53.312;9.790;2022-10-16T04:15:29;100366.28;;;11.64;92.59
39891;BME280;25564;53.312;9.790;2022-10-16T04:18:00;100346.25;;;11.52;92.34
39891;BME280;25564;53.312;9.790;2022-10-16T04:20:32;100345.41;;;11.50;92.14
39891;BME280;25564;53.312;9.790;2022-10-16T04:23:03;100374.31;;;11.62;92.75
39891;BME280;25564;53.312;9.790;2022-10-16T04:25:35;100373.44;;;11.62;92.84
39891;BME280;25564;53.312;9.790;2022-10-16T04:28:06;100379.69;;;11.59;92.57
39891;BME280;25564;53.312;9.790;2022-10-16T04:30:38;100379.69;;;11.59;92.41
39891;BME280;25564;53.312;9.790;2022-10-16T04:33:10;100384.16;;;11.59;92.46
39891;BME280;25564;53.312;9.790;2022-10-16T04:35:41;100385.09;;;11.56;92.43
39891;BME280;25564;53.312;9.790;2022-10-16T04:38:12;100388.66;;;11.55;92.58
39891;BME280;25564;53.312;9.790;2022-10-16T04:40:44;100390.47;;;11.55;92.55
39891;BME280;25564;53.312;9.790;2022-10-16T04:43:15;100393.16;;;11.53;92.50
39891;BME280;25564;53.312;9.790;2022-10-16T04:45:47;100399.38;;;11.52;92.45
39891;BME280;25564;53.312;9.790;2022-10-16T04:48:18;100394.06;;;11.52;92.56
39891;BME280;25564;53.312;9.790;2022-10-16T04:50:50;100388.75;;;11.52;92.83
39891;BME280;25564;53.312;9.790;2022-10-16T04:53:25;100386.13;;;11.51;92.62
39891;BME280;25564;53.312;9.790;2022-10-16T04:55:56;100380.00;;;11.48;92.69
39891;BME280;25564;53.312;9.790;2022-10-16T04:58:28;100394.22;;;11.46;92.34
39891;BME280;25564;53.312;9.790;2022-10-16T05:00:59;100396.94;;;11.44;92.53
39891;BME280;25564;53.312;9.790;2022-10-16T05:03:30;100401.38;;;11.44;92.61
39891;BME280;25564;53.312;9.790;2022-10-16T05:06:05;100376.91;;;11.33;92.37
39891;BME280;25564;53.312;9.790;2022-10-16T05:08:36;100399.69;;;11.41;92.53
39891;BME280;25564;53.312;9.790;2022-10-16T05:11:07;100399.72;;;11.40;92.54
39891;BME280;25564;53.312;9.790;2022-10-16T05:13:39;100411.28;;;11.39;92.61
39891;BME280;25564;53.312;9.790;2022-10-16T05:16:10;100417.53;;;11.36;92.62
39891;BME280;25564;53.312;9.790;2022-10-16T05:18:41;100411.34;;;11.36;92.35
39891;BME280;25564;53.312;9.790;2022-10-16T05:21:13;100404.28;;;11.35;92.61
39891;BME280;25564;53.312;9.790;2022-10-16T05:23:44;100415.00;;;11.32;92.16
39891;BME280;25564;53.312;9.790;2022-10-16T05:26:16;100411.63;;;11.25;92.33
39891;BME280;25564;53.312;9.790;2022-10-16T05:28:47;100416.00;;;11.28;92.40
39891;BME280;25564;53.312;9.790;2022-10-16T05:31:18;100413.38;;;11.26;92.62
39891;BME280;25564;53.312;9.790;2022-10-16T05:33:50;100412.53;;;11.24;92.64
39891;BME280;25564;53.312;9.790;2022-10-16T05:36:21;100409.03;;;11.22;92.55
39891;BME280;25564;53.312;9.790;2022-10-16T05:38:52;100411.75;;;11.21;92.66
39891;BME280;25564;53.312;9.790;2022-10-16T05:41:24;100410.00;;;11.20;92.91
39891;BME280;25564;53.312;9.790;2022-10-16T05:43:57;100410.91;;;11.19;92.82
39891;BME280;25564;53.312;9.790;2022-10-16T05:46:28;100416.28;;;11.16;92.96
39891;BME280;25564;53.312;9.790;2022-10-16T05:48:59;100421.59;;;11.16;92.92
39891;BME280;25564;53.312;9.790;2022-10-16T05:51:31;100411.22;;;11.06;92.68
39891;BME280;25564;53.312;9.790;2022-10-16T05:54:02;100414.69;;;11.08;92.78
39891;BME280;25564;53.312;9.790;2022-10-16T05:56:33;100417.19;;;11.14;92.75
39891;BME280;25564;53.312;9.790;2022-10-16T05:59:05;100421.66;;;11.14;92.84
39891;BME280;25564;53.312;9.790;2022-10-16T06:01:36;100427.00;;;11.12;92.66
39891;BME280;25564;53.312;9.790;2022-10-16T06:04:08;100432.31;;;11.12;92.76
39891;BME280;25564;53.312;9.790;2022-10-16T06:06:45;100434.03;;;11.13;93.02
39891;BME280;25564;53.312;9.790;2022-10-16T06:09:16;100429.59;;;11.14;93.21
39891;BME280;25564;53.312;9.790;2022-10-16T06:11:47;100429.59;;;11.14;93.03
39891;BME280;25564;53.312;9.790;2022-10-16T06:14:19;100426.25;;;11.06;93.47
39891;BME280;25564;53.312;9.790;2022-10-16T06:16:50;100440.22;;;11.14;93.27
39891;BME280;25564;53.312;9.790;2022-10-16T06:19:21;100436.66;;;11.15;93.31
39891;BME280;25564;53.312;9.790;2022-10-16T06:21:54;100453.41;;;11.19;93.45
39891;BME280;25564;53.312;9.790;2022-10-16T06:24:25;100446.28;;;11.21;93.39
39891;BME280;25564;53.312;9.790;2022-10-16T06:26:57;100453.25;;;11.25;93.65
39891;BME280;25564;53.312;9.790;2022-10-16T06:29:28;100443.66;;;11.19;93.52
39891;BME280;25564;53.312;9.790;2022-10-16T06:31:59;100454.91;;;11.29;93.78
39891;BME280;25564;53.312;9.790;2022-10-16T06:34:31;100440.72;;;11.30;93.69
39891;BME280;25564;53.312;9.790;2022-10-16T06:37:02;100457.44;;;11.35;93.69
39891;BME280;25564;53.312;9.790;2022-10-16T06:39:33;100462.66;;;11.38;94.22
39891;BME280;25564;53.312;9.790;2022-10-16T06:42:05;100465.97;;;11.46;94.43
39891;BME280;25564;53.312;9.790;2022-10-16T06:44:36;100468.47;;;11.52;94.86
39891;BME280;25564;53.312;9.790;2022-10-16T06:47:07;100466.72;;;11.51;94.74
39891;BME280;25564;53.312;9.790;2022-10-16T06:49:38;100476.19;;;11.63;94.84
39891;BME280;25564;53.312;9.790;2022-10-16T06:52:10;100485.75;;;11.70;95.02
39891;BME280;25564;53.312;9.790;2022-10-16T06:54:41;100494.38;;;11.79;95.08
39891;BME280;25564;53.312;9.790;2022-10-16T06:57:12;100497.63;;;11.91;95.30
39891;BME280;25564;53.312;9.790;2022-10-16T06:59:44;100491.16;;;12.01;95.55
39891;BME280;25564;53.312;9.790;2022-10-16T07:02:17;100488.22;;;12.11;95.62
39891;BME280;25564;53.312;9.790;2022-10-16T07:04:48;100494.06;;;12.24;95.81
39891;BME280;25564;53.312;9.790;2022-10-16T07:07:20;100491.88;;;12.38;95.87
39891;BME280;25564;53.312;9.790;2022-10-16T07:09:51;100498.44;;;12.56;96.24
39891;BME280;25564;53.312;9.790;2022-10-16T07:12:22;100497.06;;;12.72;96.40
39891;BME280;25564;53.312;9.790;2022-10-16T07:14:54;100506.16;;;12.95;96.48
39891;BME280;25564;53.312;9.790;2022-10-16T07:17:26;100517.06;;;13.15;96.59
39891;BME280;25564;53.312;9.790;2022-10-16T07:19:58;100507.66;;;13.33;96.61
39891;BME280;25564;53.312;9.790;2022-10-16T07:22:29;100528.50;;;13.48;96.64
39891;BME280;25564;53.312;9.790;2022-10-16T07:25:00;100519.94;;;13.63;96.47
39891;BME280;25564;53.312;9.790;2022-10-16T07:27:32;100543.53;;;13.75;96.36
39891;BME280;25564;53.312;9.790;2022-10-16T07:30:04;100538.72;;;13.87;96.52
39891;BME280;25564;53.312;9.790;2022-10-16T07:32:39;100519.94;;;13.90;96.52
39891;BME280;25564;53.312;9.790;2022-10-16T07:35:10;100551.00;;;14.17;96.27
39891;BME280;25564;53.312;9.790;2022-10-16T07:37:45;100545.13;;;14.32;96.41
39891;BME280;25564;53.312;9.790;2022-10-16T07:40:17;100555.31;;;14.48;96.44
39891;BME280;25564;53.312;9.790;2022-10-16T07:42:48;100559.94;;;14.66;96.43
39891;BME280;25564;53.312;9.790;2022-10-16T07:45:19;100557.75;;;14.77;96.38
39891;BME280;25564;53.312;9.790;2022-10-16T07:47:51;100558.81;;;14.96;96.36
39891;BME280;25564;53.312;9.790;2022-10-16T07:50:22;100559.03;;;15.14;96.47
39891;BME280;25564;53.312;9.790;2022-10-16T07:52:54;100567.19;;;15.32;96.35
39891;BME280;25564;53.312;9.790;2022-10-16T07:55:25;100560.38;;;15.47;96.49
39891;BME280;25564;53.312;9.790;2022-10-16T07:57:56;100560.63;;;15.63;96.22
39891;BME280;25564;53.312;9.790;2022-10-16T08:00:28;100569.56;;;15.84;96.16
39891;BME280;25564;53.312;9.790;2022-10-16T08:02:59;100575.91;;;16.03;96.05
39891;BME280;25564;53.312;9.790;2022-10-16T08:05:33;100575.84;;;16.25;95.89
39891;BME280;25564;53.312;9.790;2022-10-16T08:08:05;100575.94;;;16.44;95.98
39891;BME280;25564;53.312;9.790;2022-10-16T08:10:36;100573.50;;;16.58;95.68
39891;BME280;25564;53.312;9.790;2022-10-16T08:13:07;100576.72;;;16.66;95.24
39891;BME280;25564;53.312;9.790;2022-10-16T08:15:39;100585.16;;;16.77;94.76
39891;BME280;25564;53.312;9.790;2022-10-16T08:18:12;100595.53;;;16.85;94.28
39891;BME280;25564;53.312;9.790;2022-10-16T08:20:43;100593.28;;;16.94;93.82
39891;BME280;25564;53.312;9.790;2022-10-16T08:23:14;100592.00;;;17.03;93.32
39891;BME280;25564;53.312;9.790;2022-10-16T08:25:46;100593.75;;;17.04;92.77
39891;BME280;25564;53.312;9.790;2022-10-16T08:28:17;100606.81;;;17.12;92.52
39891;BME280;25564;53.312;9.790;2022-10-16T08:30:48;100590.56;;;17.15;91.92
39891;BME280;25564;53.312;9.790;2022-10-16T08:33:20;100612.53;;;17.23;91.67
39891;BME280;25564;53.312;9.790;2022-10-16T08:35:52;100604.13;;;17.30;91.41
39891;BME280;25564;53.312;9.790;2022-10-16T08:38:24;100622.75;;;17.33;91.34
39891;BME280;25564;53.312;9.790;2022-10-16T08:41:21;100608.19;;;17.39;91.19
39891;BME280;25564;53.312;9.790;2022-10-16T08:46:55;100611.66;;;17.41;90.89
39891;BME280;25564;53.312;9.790;2022-10-16T08:49:32;100611.53;;;17.44;90.56
39891;BME280;25564;53.312;9.790;2022-10-16T08:52:03;100615.81;;;17.48;90.51
39891;BME280;25564;53.312;9.790;2022-10-16T08:54:43;100599.84;;;17.45;90.22
39891;BME280;25564;53.312;9.790;2022-10-16T08:57:20;100618.13;;;17.56;89.45
39891;BME280;25564;53.312;9.790;2022-10-16T08:59:59;100620.59;;;17.60;90.00
39891;BME280;25564;53.312;9.790;2022-10-16T09:11:53;100630.19;;;18.02;88.68
39891;BME280;25564;53.312;9.790;2022-10-16T09:14:40;100643.00;;;18.14;89.25
39891;BME280;25564;53.312;9.790;2022-10-16T09:25:38;100657.78;;;18.23;87.68
39891;BME280;25564;53.312;9.790;2022-10-16T09:28:11;100662.44;;;18.19;87.22
39891;BME280;25564;53.312;9.790;2022-10-16T09:30:42;100666.56;;;18.26;87.26
39891;BME280;25564;53.312;9.790;2022-10-16T09:33:15;100657.16;;;18.35;86.47
39891;BME280;25564;53.312;9.790;2022-10-16T09:35:53;100666.13;;;18.53;86.49
39891;BME280;25564;53.312;9.790;2022-10-16T09:38:33;100666.09;;;18.87;87.23
39891;BME280;25564;53.312;9.790;2022-10-16T09:43:53;100666.88;;;19.07;84.83
39891;BME280;25564;53.312;9.790;2022-10-16T09:46:34;100671.09;;;18.95;84.16
39891;BME280;25564;53.312;9.790;2022-10-16T09:49:20;100677.19;;;18.81;83.87
39891;BME280;25564;53.312;9.790;2022-10-16T09:52:14;100669.91;;;18.83;83.32
39891;BME280;25564;53.312;9.790;2022-10-16T09:54:57;100652.97;;;18.81;83.47
39891;BME280;25564;53.312;9.790;2022-10-16T09:57:29;100671.41;;;18.89;83.20
39891;BME280;25564;53.312;9.790;2022-10-16T10:00:08;100673.31;;;18.87;82.59
39891;BME280;25564;53.312;9.790;2022-10-16T10:02:40;100693.78;;;18.89;83.00
39891;BME280;25564;53.312;9.790;2022-10-16T10:05:25;100677.25;;;18.97;82.18
39891;BME280;25564;53.312;9.790;2022-10-16T10:07:59;100690.13;;;19.08;82.38
39891;BME280;25564;53.312;9.790;2022-10-16T10:10:41;100667.03;;;19.04;82.63
39891;BME280;25564;53.312;9.790;2022-10-16T10:13:21;100687.50;;;19.23;82.24
39891;BME280;25564;53.312;9.790;2022-10-16T10:15:53;100694.28;;;19.31;81.44
39891;BME280;25564;53.312;9.790;2022-10-16T10:18:27;100676.81;;;19.22;81.67
39891;BME280;25564;53.312;9.790;2022-10-16T10:21:02;100695.06;;;19.33;80.63
39891;BME280;25564;53.312;9.790;2022-10-16T10:23:35;100698.72;;;19.32;80.22
39891;BME280;25564;53.312;9.790;2022-10-16T10:26:16;100687.25;;;19.28;79.74
39891;BME280;25564;53.312;9.790;2022-10-16T10:31:59;100709.41;;;19.33;80.02
39891;BME280;25564;53.312;9.790;2022-10-16T10:34:55;100720.19;;;19.49;79.64
39891;BME280;25564;53.312;9.790;2022-10-16T10:37:54;100721.38;;;19.61;79.22
39891;BME280;25564;53.312;9.790;2022-10-16T10:40:39;100727.47;;;19.80;79.37
39891;BME280;25564;53.312;9.790;2022-10-16T10:43:27;100718.88;;;19.89;79.05
39891;BME280;25564;53.312;9.790;2022-10-16T10:46:03;100708.72;;;19.94;77.65
39891;BME280;25564;53.312;9.790;2022-10-16T10:49:03;100716.09;;;19.90;77.05
39891;BME280;25564;53.312;9.790;2022-10-16T10:54:30;100739.66;;;19.71;77.33
39891;BME280;25564;53.312;9.790;2022-10-16T10:57:22;100734.25;;;19.71;76.01
39891;BME280;25564;53.312;9.790;2022-10-16T11:06:08;100724.69;;;19.66;76.96
39891;BME280;25564;53.312;9.790;2022-10-16T11:12:04;100730.88;;;19.83;76.14
39891;BME280;25564;53.312;9.790;2022-10-16T11:15:03;100738.16;;;19.81;75.00
39891;BME280;25564;53.312;9.790;2022-10-16T11:17:40;100742.59;;;19.82;75.71
39891;BME280;25564;53.312;9.790;2022-10-16T11:20:20;100737.19;;;19.82;74.81
39891;BME280;25564;53.312;9.790;2022-10-16T11:23:08;100728.88;;;19.71;74.52
39891;BME280;25564;53.312;9.790;2022-10-16T11:25:45;100736.69;;;19.60;75.01
39891;BME280;25564;53.312;9.790;2022-10-16T11:28:22;100751.88;;;19.61;74.76
39891;BME280;25564;53.312;9.790;2022-10-16T11:31:26;100735.47;;;19.66;74.03
39891;BME280;25564;53.312;9.790;2022-10-16T11:34:15;100744.25;;;19.69;74.69
39891;BME280;25564;53.312;9.790;2022-10-16T11:39:26;100750.06;;;19.62;74.92
39891;BME280;25564;53.312;9.790;2022-10-16T11:42:16;100756.94;;;19.67;73.59
39891;BME280;25564;53.312;9.790;2022-10-16T11:44:55;100757.09;;;19.80;74.56
39891;BME280;25564;53.312;9.790;2022-10-16T11:47:48;100769.19;;;20.04;73.32
39891;BME280;25564;53.312;9.790;2022-10-16T11:50:40;100767.72;;;20.14;73.99
39891;BME280;25564;53.312;9.790;2022-10-16T11:56:19;100772.84;;;20.03;72.99
39891;BME280;25564;53.312;9.790;2022-10-16T11:58:58;100760.25;;;20.04;73.15
39891;BME280;25564;53.312;9.790;2022-10-16T12:01:48;100775.09;;;19.95;72.03
39891;BME280;25564;53.312;9.790;2022-10-16T12:04:40;100783.97;;;19.97;72.24
39891;BME280;25564;53.312;9.790;2022-10-16T12:07:22;100784.66;;;20.01;72.82
39891;BME280;25564;53.312;9.790;2022-10-16T12:09:55;100791.72;;;20.03;72.52
39891;BME280;25564;53.312;9.790;2022-10-16T12:18:07;100803.28;;;20.37;72.43
39891;BME280;25564;53.312;9.790;2022-10-16T12:20:57;100806.81;;;20.54;72.20
39891;BME280;25564;53.312;9.790;2022-10-16T12:23:31;100801.47;;;20.69;71.34
39891;BME280;25564;53.312;9.790;2022-10-16T12:26:04;100805.38;;;20.79;70.62
39891;BME280;25564;53.312;9.790;2022-10-16T12:28:36;100821.59;;;20.93;70.06
39891;BME280;25564;53.312;9.790;2022-10-16T12:31:09;100814.38;;;20.94;69.44
39891;BME280;25564;53.312;9.790;2022-10-16T12:33:57;100818.97;;;20.77;68.82
39891;BME280;25564;53.312;9.790;2022-10-16T12:36:32;100820.03;;;20.59;68.77
39891;BME280;25564;53.312;9.790;2022-10-16T12:39:04;100818.72;;;20.50;69.49
39891;BME280;25564;53.312;9.790;2022-10-16T12:41:36;100813.25;;;20.52;69.07
39891;BME280;25564;53.312;9.790;2022-10-16T12:44:23;100816.91;;;20.51;68.21
39891;BME280;25564;53.312;9.790;2022-10-16T12:46:55;100823.56;;;20.28;68.83
39891;BME280;25564;53.312;9.790;2022-10-16T12:49:32;100833.34;;;20.13;68.25
39891;BME280;25564;53.312;9.790;2022-10-16T12:55:12;100835.63;;;19.72;69.31
39891;BME280;25564;53.312;9.790;2022-10-16T12:58:06;100842.31;;;19.65;68.44
39891;BME280;25564;53.312;9.790;2022-10-16T13:06:56;100841.03;;;19.20;69.26
39891;BME280;25564;53.312;9.790;2022-10-16T13:15:35;100865.22;;;19.03;70.49
39891;BME280;25564;53.312;9.790;2022-10-16T13:18:19;100864.50;;;19.00;70.19
39891;BME280;25564;53.312;9.790;2022-10-16T13:21:07;100854.22;;;19.08;70.32
39891;BME280;25564;53.312;9.790;2022-10-16T13:30:02;100871.03;;;19.98;69.35
39891;BME280;25564;53.312;9.790;2022-10-16T13:32:40;100876.38;;;20.15;68.44
39891;BME280;25564;53.312;9.790;2022-10-16T13:35:46;100879.63;;;20.21;67.09
39891;BME280;25564;53.312;9.790;2022-10-16T13:40:53;100889.72;;;20.01;67.44
39891;BME280;25564;53.312;9.790;2022-10-16T13:43:43;100892.69;;;19.96;66.80
39891;BME280;25564;53.312;9.790;2022-10-16T13:46:17;100901.41;;;19.84;67.53
39891;BME280;25564;53.312;9.790;2022-10-16T13:48:59;100897.41;;;19.75;66.78
39891;BME280;25564;53.312;9.790;2022-10-16T13:51:31;100905.19;;;19.64;67.22
39891;BME280;25564;53.312;9.790;2022-10-16T13:54:03;100911.03;;;19.55;67.43
39891;BME280;25564;53.312;9.790;2022-10-16T13:56:34;100920.06;;;19.54;67.50
39891;BME280;25564;53.312;9.790;2022-10-16T13:59:22;100916.69;;;19.49;66.16
39891;BME280;25564;53.312;9.790;2022-10-16T14:01:55;100917.56;;;19.49;67.13
39891;BME280;25564;53.312;9.790;2022-10-16T14:04:31;100905.72;;;19.53;66.41
39891;BME280;25564;53.312;9.790;2022-10-16T14:07:03;100927.28;;;19.71;66.03
39891;BME280;25564;53.312;9.790;2022-10-16T14:09:34;100929.44;;;19.80;65.48
39891;BME280;25564;53.312;9.790;2022-10-16T14:12:10;100927.22;;;19.88;65.48
39891;BME280;25564;53.312;9.790;2022-10-16T14:14:44;100933.09;;;19.96;64.94
39891;BME280;25564;53.312;9.790;2022-10-16T14:17:24;100926.66;;;19.99;64.50
39891;BME280;25564;53.312;9.790;2022-10-16T14:19:59;100921.34;;;19.97;64.55
39891;BME280;25564;53.312;9.790;2022-10-16T14:22:38;100930.94;;;20.03;64.70
39891;BME280;25564;53.312;9.790;2022-10-16T14:28:22;100953.44;;;20.02;63.90
39891;BME280;25564;53.312;9.790;2022-10-16T14:30:59;100939.41;;;19.95;64.32
39891;BME280;25564;53.312;9.790;2022-10-16T14:33:33;100945.69;;;19.96;64.16
39891;BME280;25564;53.312;9.790;2022-10-16T14:36:15;100951.56;;;19.86;63.39
39891;BME280;25564;53.312;9.790;2022-10-16T14:39:06;100966.44;;;19.76;63.81
39891;BME280;25564;53.312;9.790;2022-10-16T14:41:45;100960.94;;;19.62;64.34
39891;BME280;25564;53.312;9.790;2022-10-16T14:44:18;100968.94;;;19.45;65.51
39891;BME280;25564;53.312;9.790;2022-10-16T14:46:50;100971.22;;;19.35;65.74
39891;BME280;25564;53.312;9.790;2022-10-16T14:49:22;100960.91;;;19.26;65.22
39891;BME280;25564;53.312;9.790;2022-10-16T14:51:55;100957.88;;;19.15;64.90
39891;BME280;25564;53.312;9.790;2022-10-16T14:54:26;100976.88;;;19.12;64.89